sensor_id;sensor_type;location;lat;lon;timestamp;pressure;altitude;pressure_sealevel;temperature;humidity
80568;BME280;69922;45.656;25.586;2023-10-31T00:00:16;95231.23;;;6.82;70.11
80568;BME280;69922;45.656;25.586;2023-10-31T00:01:43;95234.79;;;6.86;69.93
80568;BME280;69922;45.656;25.586;2023-10-31T00:02:49;95234.61;;;6.86;69.88
80568;BME280;69922;45.656;25.586;2023-10-31T00:03:55;95231.25;;;6.84;69.80
80568;BME280;69922;45.656;25.586;2023-10-31T00:05:01;95230.65;;;6.81;69.78
80568;BME280;69922;45.656;25.586;2023-10-31T00:06:08;95229.41;;;6.77;69.87
80568;BME280;69922;45.656;25.586;2023-10-31T00:07:14;95228.48;;;6.74;69.85
80568;BME280;69922;45.656;25.586;2023-10-31T00:08:21;95232.85;;;6.69;70.00
80568;BME280;69922;45.656;25.586;2023-10-31T00:09:27;95229.75;;;6.64;70.03
80568;BME280;69922;45.656;25.586;2023-10-31T00:10:33;95227.05;;;6.59;70.12
80568;BME280;69922;45.656;25.586;2023-10-31T00:11:40;95227.52;;;6.54;70.16
80568;BME280;69922;45.656;25.586;2023-10-31T00:12:47;95229.52;;;6.49;70.25
80568;BME280;69922;45.656;25.586;2023-10-31T00:13:54;95231.77;;;6.43;70.40
80568;BME280;69922;45.656;25.586;2023-10-31T00:15:00;95230.11;;;6.38;70.61
80568;BME280;69922;45.656;25.586;2023-10-31T00:16:07;95232.81;;;6.33;70.64
80568;BME280;69922;45.656;25.586;2023-10-31T00:17:14;95225.55;;;6.28;70.76
80568;BME280;69922;45.656;25.586;2023-10-31T00:18:20;95227.80;;;6.24;70.88
80568;BME280;69922;45.656;25.586;2023-10-31T00:19:26;95226.27;;;6.20;71.16
80568;BME280;69922;45.656;25.586;2023-10-31T00:20:33;95228.66;;;6.17;71.34
80568;BME280;69922;45.656;25.586;2023-10-31T00:21:39;95226.66;;;6.13;71.44
80568;BME280;69922;45.656;25.586;2023-10-31T00:22:46;95227.27;;;6.11;71.75
80568;BME280;69922;45.656;25.586;2023-10-31T00:23:52;95224.06;;;6.08;71.68
80568;BME280;69922;45.656;25.586;2023-10-31T00:24:58;95223.89;;;6.06;71.92
80568;BME280;69922;45.656;25.586;2023-10-31T00:26:04;95223.21;;;6.04;72.06
80568;BME280;69922;45.656;25.586;2023-10-31T00:27:10;95222.70;;;6.01;71.95
80568;BME280;69922;45.656;25.586;2023-10-31T00:28:17;95215.31;;;5.99;72.14
80568;BME280;69922;45.656;25.586;2023-10-31T00:29:23;95212.83;;;5.95;72.24
80568;BME280;69922;45.656;25.586;2023-10-31T00:30:29;95214.77;;;5.91;72.42
80568;BME280;69922;45.656;25.586;2023-10-31T00:31:35;95217.75;;;5.88;72.35
80568;BME280;69922;45.656;25.586;2023-10-31T00:32:42;95213.08;;;5.85;72.53
80568;BME280;69922;45.656;25.586;2023-10-31T00:33:48;95213.86;;;5.82;72.65
80568;BME280;69922;45.656;25.586;2023-10-31T00:34:54;95216.81;;;5.79;72.83
80568;BME280;69922;45.656;25.586;2023-10-31T00:36:01;95219.41;;;5.76;72.71
80568;BME280;69922;45.656;25.586;2023-10-31T00:37:07;95218.42;;;5.72;72.86
80568;BME280;69922;45.656;25.586;2023-10-31T00:38:13;95217.05;;;5.70;72.93
80568;BME280;69922;45.656;25.586;2023-10-31T00:39:19;95213.55;;;5.68;73.08
80568;BME280;69922;45.656;25.586;2023-10-31T00:40:25;95217.66;;;5.65;73.06
80568;BME280;69922;45.656;25.586;2023-10-31T00:41:32;95216.83;;;5.63;73.19
80568;BME280;69922;45.656;25.586;2023-10-31T00:42:38;95218.58;;;5.61;73.36
80568;BME280;69922;45.656;25.586;2023-10-31T00:43:47;95218.92;;;5.60;73.55
80568;BME280;69922;45.656;25.586;2023-10-31T00:44:53;95219.66;;;5.58;73.64
80568;BME280;69922;45.656;25.586;2023-10-31T00:46:02;95222.56;;;5.56;73.56
80568;BME280;69922;45.656;25.586;2023-10-31T00:47:08;95225.23;;;5.53;73.72
80568;BME280;69922;45.656;25.586;2023-10-31T00:48:15;95227.88;;;5.51;73.93
80568;BME280;69922;45.656;25.586;2023-10-31T00:49:21;95226.59;;;5.49;74.12
80568;BME280;69922;45.656;25.586;2023-10-31T00:50:27;95227.05;;;5.48;74.15
80568;BME280;69922;45.656;25.586;2023-10-31T00:51:33;95224.73;;;5.46;74.36
80568;BME280;69922;45.656;25.586;2023-10-31T00:52:40;95221.83;;;5.46;74.34
80568;BME280;69922;45.656;25.586;2023-10-31T00:53:46;95221.61;;;5.45;74.45
80568;BME280;69922;45.656;25.586;2023-10-31T00:54:53;95219.88;;;5.45;74.75
80568;BME280;69922;45.656;25.586;2023-10-31T00:55:59;95218.40;;;5.46;74.56
80568;BME280;69922;45.656;25.586;2023-10-31T00:57:05;95216.89;;;5.46;74.68
80568;BME280;69922;45.656;25.586;2023-10-31T00:58:12;95207.94;;;5.46;74.55
80568;BME280;69922;45.656;25.586;2023-10-31T00:59:18;95204.30;;;5.46;74.43
80568;BME280;69922;45.656;25.586;2023-10-31T01:00:24;95201.06;;;5.46;74.47
80568;BME280;69922;45.656;25.586;2023-10-31T01:01:31;95201.02;;;5.45;74.41
80568;BME280;69922;45.656;25.586;2023-10-31T01:02:38;95196.61;;;5.44;74.53
80568;BME280;69922;45.656;25.586;2023-10-31T01:03:44;95198.17;;;5.40;74.47
80568;BME280;69922;45.656;25.586;2023-10-31T01:04:51;95193.76;;;5.38;74.50
80568;BME280;69922;45.656;25.586;2023-10-31T01:05:57;95191.62;;;5.36;74.74
80568;BME280;69922;45.656;25.586;2023-10-31T01:07:04;95194.30;;;5.34;74.79
80568;BME280;69922;45.656;25.586;2023-10-31T01:08:10;95193.55;;;5.32;74.94
80568;BME280;69922;45.656;25.586;2023-10-31T01:09:16;95189.57;;;5.30;74.96
80568;BME280;69922;45.656;25.586;2023-10-31T01:10:23;95192.41;;;5.29;75.13
80568;BME280;69922;45.656;25.586;2023-10-31T01:11:29;95190.13;;;5.29;75.33
80568;BME280;69922;45.656;25.586;2023-10-31T01:12:35;95189.58;;;5.30;75.19
80568;BME280;69922;45.656;25.586;2023-10-31T01:13:41;95190.86;;;5.30;75.32
80568;BME280;69922;45.656;25.586;2023-10-31T01:14:47;95186.90;;;5.31;75.38
80568;BME280;69922;45.656;25.586;2023-10-31T01:15:53;95186.57;;;5.32;75.37
80568;BME280;69922;45.656;25.586;2023-10-31T01:16:59;95181.52;;;5.33;75.64
80568;BME280;69922;45.656;25.586;2023-10-31T01:18:06;95182.10;;;5.34;75.60
80568;BME280;69922;45.656;25.586;2023-10-31T01:19:12;95179.27;;;5.35;75.52
80568;BME280;69922;45.656;25.586;2023-10-31T01:20:18;95182.53;;;5.35;75.46
80568;BME280;69922;45.656;25.586;2023-10-31T01:21:24;95177.82;;;5.35;75.75
80568;BME280;69922;45.656;25.586;2023-10-31T01:22:31;95178.39;;;5.36;76.15
80568;BME280;69922;45.656;25.586;2023-10-31T01:23:37;95176.02;;;5.36;75.76
80568;BME280;69922;45.656;25.586;2023-10-31T01:24:43;95172.89;;;5.35;75.72
80568;BME280;69922;45.656;25.586;2023-10-31T01:25:49;95173.27;;;5.35;75.53
80568;BME280;69922;45.656;25.586;2023-10-31T01:26:56;95168.03;;;5.33;75.96
80568;BME280;69922;45.656;25.586;2023-10-31T01:28:02;95172.74;;;5.34;76.04
80568;BME280;69922;45.656;25.586;2023-10-31T01:29:08;95176.36;;;5.35;76.08
80568;BME280;69922;45.656;25.586;2023-10-31T01:30:15;95174.23;;;5.36;75.70
80568;BME280;69922;45.656;25.586;2023-10-31T01:31:21;95176.33;;;5.36;75.78
80568;BME280;69922;45.656;25.586;2023-10-31T01:32:27;95178.02;;;5.36;75.79
80568;BME280;69922;45.656;25.586;2023-10-31T01:33:35;95176.40;;;5.36;75.80
80568;BME280;69922;45.656;25.586;2023-10-31T01:34:42;95178.02;;;5.35;75.54
80568;BME280;69922;45.656;25.586;2023-10-31T01:35:48;95176.80;;;5.34;75.94
80568;BME280;69922;45.656;25.586;2023-10-31T01:36:54;95172.53;;;5.32;75.92
80568;BME280;69922;45.656;25.586;2023-10-31T01:38:00;95169.19;;;5.32;76.26
80568;BME280;69922;45.656;25.586;2023-10-31T01:39:07;95165.50;;;5.31;76.56
80568;BME280;69922;45.656;25.586;2023-10-31T01:40:15;95164.21;;;5.32;77.03
80568;BME280;69922;45.656;25.586;2023-10-31T01:41:21;95165.73;;;5.31;76.71
80568;BME280;69922;45.656;25.586;2023-10-31T01:42:27;95161.61;;;5.31;76.60
80568;BME280;69922;45.656;25.586;2023-10-31T01:43:35;95161.44;;;5.32;76.33
80568;BME280;69922;45.656;25.586;2023-10-31T01:44:42;95164.95;;;5.32;76.44
80568;BME280;69922;45.656;25.586;2023-10-31T01:45:48;95158.93;;;5.34;76.22
80568;BME280;69922;45.656;25.586;2023-10-31T01:46:55;95163.68;;;5.35;75.93
80568;BME280;69922;45.656;25.586;2023-10-31T01:48:01;95162.89;;;5.34;75.81
80568;BME280;69922;45.656;25.586;2023-10-31T01:49:08;95163.16;;;5.33;75.75
80568;BME280;69922;45.656;25.586;2023-10-31T01:50:14;95161.77;;;5.32;75.80
80568;BME280;69922;45.656;25.586;2023-10-31T01:51:21;95152.69;;;5.31;75.93
80568;BME280;69922;45.656;25.586;2023-10-31T01:52:28;95152.98;;;5.29;75.98
80568;BME280;69922;45.656;25.586;2023-10-31T01:53:36;95157.39;;;5.28;75.97
80568;BME280;69922;45.656;25.586;2023-10-31T01:54:43;95157.19;;;5.26;76.14
80568;BME280;69922;45.656;25.586;2023-10-31T01:55:51;95156.35;;;5.25;76.03
80568;BME280;69922;45.656;25.586;2023-10-31T01:56:59;95158.73;;;5.24;75.89
80568;BME280;69922;45.656;25.586;2023-10-31T01:58:05;95160.10;;;5.22;75.93
80568;BME280;69922;45.656;25.586;2023-10-31T01:59:12;95159.53;;;5.20;76.15
80568;BME280;69922;45.656;25.586;2023-10-31T02:00:19;95161.67;;;5.19;76.27
80568;BME280;69922;45.656;25.586;2023-10-31T02:01:26;95161.04;;;5.17;76.24
80568;BME280;69922;45.656;25.586;2023-10-31T02:02:34;95164.35;;;5.16;76.18
80568;BME280;69922;45.656;25.586;2023-10-31T02:03:41;95162.75;;;5.15;76.24
80568;BME280;69922;45.656;25.586;2023-10-31T02:04:47;95160.11;;;5.14;76.06
80568;BME280;69922;45.656;25.586;2023-10-31T02:05:54;95158.55;;;5.12;76.41
80568;BME280;69922;45.656;25.586;2023-10-31T02:07:00;95156.02;;;5.11;76.42
80568;BME280;69922;45.656;25.586;2023-10-31T02:08:07;95157.36;;;5.12;76.31
80568;BME280;69922;45.656;25.586;2023-10-31T02:09:14;95159.33;;;5.11;76.14
80568;BME280;69922;45.656;25.586;2023-10-31T02:10:20;95156.67;;;5.11;76.52
80568;BME280;69922;45.656;25.586;2023-10-31T02:11:26;95158.95;;;5.10;76.37
80568;BME280;69922;45.656;25.586;2023-10-31T02:12:36;95157.45;;;5.10;76.31
80568;BME280;69922;45.656;25.586;2023-10-31T02:13:43;95158.77;;;5.09;76.17
80568;BME280;69922;45.656;25.586;2023-10-31T02:14:49;95163.27;;;5.08;75.97
80568;BME280;69922;45.656;25.586;2023-10-31T02:15:55;95160.20;;;5.06;76.00
80568;BME280;69922;45.656;25.586;2023-10-31T02:17:02;95159.86;;;5.04;76.14
80568;BME280;69922;45.656;25.586;2023-10-31T02:18:08;95160.04;;;5.02;76.09
80568;BME280;69922;45.656;25.586;2023-10-31T02:19:20;95161.48;;;5.00;76.12
80568;BME280;69922;45.656;25.586;2023-10-31T02:20:26;95160.45;;;4.99;76.23
80568;BME280;69922;45.656;25.586;2023-10-31T02:21:34;95162.02;;;4.98;76.35
80568;BME280;69922;45.656;25.586;2023-10-31T02:22:40;95161.98;;;4.97;76.30
80568;BME280;69922;45.656;25.586;2023-10-31T02:23:57;95161.15;;;4.96;76.45
80568;BME280;69922;45.656;25.586;2023-10-31T02:25:05;95157.73;;;4.96;76.27
80568;BME280;69922;45.656;25.586;2023-10-31T02:26:21;95161.36;;;4.96;76.38
80568;BME280;69922;45.656;25.586;2023-10-31T02:27:27;95162.92;;;4.95;76.30
80568;BME280;69922;45.656;25.586;2023-10-31T02:28:33;95165.10;;;4.95;76.39
80568;BME280;69922;45.656;25.586;2023-10-31T02:29:40;95164.41;;;4.94;76.41
80568;BME280;69922;45.656;25.586;2023-10-31T02:30:46;95163.28;;;4.93;76.48
80568;BME280;69922;45.656;25.586;2023-10-31T02:31:53;95161.52;;;4.90;76.21
80568;BME280;69922;45.656;25.586;2023-10-31T02:33:00;95155.94;;;4.88;76.69
80568;BME280;69922;45.656;25.586;2023-10-31T02:34:06;95155.50;;;4.87;77.07
80568;BME280;69922;45.656;25.586;2023-10-31T02:35:13;95157.90;;;4.87;77.19
80568;BME280;69922;45.656;25.586;2023-10-31T02:36:20;95156.59;;;4.87;77.01
80568;BME280;69922;45.656;25.586;2023-10-31T02:37:26;95158.48;;;4.87;77.10
80568;BME280;69922;45.656;25.586;2023-10-31T02:38:33;95162.02;;;4.86;76.93
80568;BME280;69922;45.656;25.586;2023-10-31T02:39:39;95166.82;;;4.86;77.14
80568;BME280;69922;45.656;25.586;2023-10-31T02:40:46;95161.30;;;4.86;76.78
80568;BME280;69922;45.656;25.586;2023-10-31T02:41:52;95161.09;;;4.86;77.35
80568;BME280;69922;45.656;25.586;2023-10-31T02:42:59;95156.27;;;4.87;77.36
80568;BME280;69922;45.656;25.586;2023-10-31T02:44:05;95161.11;;;4.89;77.25
80568;BME280;69922;45.656;25.586;2023-10-31T02:45:12;95161.10;;;4.90;76.87
80568;BME280;69922;45.656;25.586;2023-10-31T02:46:19;95162.86;;;4.91;76.94
80568;BME280;69922;45.656;25.586;2023-10-31T02:47:25;95161.94;;;4.92;77.36
80568;BME280;69922;45.656;25.586;2023-10-31T02:48:31;95163.54;;;4.94;77.11
80568;BME280;69922;45.656;25.586;2023-10-31T02:49:43;95159.79;;;4.96;77.32
80568;BME280;69922;45.656;25.586;2023-10-31T02:50:50;95159.02;;;4.96;77.16
80568;BME280;69922;45.656;25.586;2023-10-31T02:51:57;95157.73;;;4.96;77.07
80568;BME280;69922;45.656;25.586;2023-10-31T02:53:03;95159.45;;;4.97;76.85
80568;BME280;69922;45.656;25.586;2023-10-31T02:54:10;95157.50;;;4.96;76.90
80568;BME280;69922;45.656;25.586;2023-10-31T02:55:17;95158.07;;;4.95;76.66
80568;BME280;69922;45.656;25.586;2023-10-31T02:56:23;95161.11;;;4.95;76.72
80568;BME280;69922;45.656;25.586;2023-10-31T02:57:29;95159.86;;;4.93;76.60
80568;BME280;69922;45.656;25.586;2023-10-31T02:58:35;95152.68;;;4.92;76.98
80568;BME280;69922;45.656;25.586;2023-10-31T02:59:41;95155.52;;;4.93;76.68
80568;BME280;69922;45.656;25.586;2023-10-31T03:00:48;95152.24;;;4.93;76.82
80568;BME280;69922;45.656;25.586;2023-10-31T03:01:55;95158.19;;;4.94;76.60
80568;BME280;69922;45.656;25.586;2023-10-31T03:03:02;95150.50;;;4.93;76.48
80568;BME280;69922;45.656;25.586;2023-10-31T03:04:08;95149.09;;;4.93;76.52
80568;BME280;69922;45.656;25.586;2023-10-31T03:05:14;95144.73;;;4.93;76.63
80568;BME280;69922;45.656;25.586;2023-10-31T03:06:21;95147.11;;;4.92;76.46
80568;BME280;69922;45.656;25.586;2023-10-31T03:07:27;95144.03;;;4.91;76.61
80568;BME280;69922;45.656;25.586;2023-10-31T03:08:34;95144.38;;;4.89;76.52
80568;BME280;69922;45.656;25.586;2023-10-31T03:09:40;95144.61;;;4.88;76.43
80568;BME280;69922;45.656;25.586;2023-10-31T03:10:46;95140.42;;;4.87;76.39
80568;BME280;69922;45.656;25.586;2023-10-31T03:11:54;95144.71;;;4.85;76.38
80568;BME280;69922;45.656;25.586;2023-10-31T03:13:00;95142.25;;;4.82;76.43
80568;BME280;69922;45.656;25.586;2023-10-31T03:14:07;95143.84;;;4.80;76.35
80568;BME280;69922;45.656;25.586;2023-10-31T03:15:14;95147.23;;;4.79;76.66
80568;BME280;69922;45.656;25.586;2023-10-31T03:16:20;95139.66;;;4.77;76.26
80568;BME280;69922;45.656;25.586;2023-10-31T03:17:27;95140.52;;;4.78;76.56
80568;BME280;69922;45.656;25.586;2023-10-31T03:18:34;95135.91;;;4.77;76.32
80568;BME280;69922;45.656;25.586;2023-10-31T03:19:40;95132.08;;;4.78;76.35
80568;BME280;69922;45.656;25.586;2023-10-31T03:20:46;95131.45;;;4.81;76.40
80568;BME280;69922;45.656;25.586;2023-10-31T03:21:52;95129.96;;;4.82;76.50
80568;BME280;69922;45.656;25.586;2023-10-31T03:22:59;95132.49;;;4.83;76.34
80568;BME280;69922;45.656;25.586;2023-10-31T03:24:07;95129.95;;;4.84;76.35
80568;BME280;69922;45.656;25.586;2023-10-31T03:25:13;95129.46;;;4.85;76.19
80568;BME280;69922;45.656;25.586;2023-10-31T03:26:20;95130.64;;;4.84;76.43
80568;BME280;69922;45.656;25.586;2023-10-31T03:27:26;95126.27;;;4.84;76.41
80568;BME280;69922;45.656;25.586;2023-10-31T03:28:32;95125.45;;;4.84;76.27
80568;BME280;69922;45.656;25.586;2023-10-31T03:29:39;95120.92;;;4.83;76.42
80568;BME280;69922;45.656;25.586;2023-10-31T03:30:45;95119.64;;;4.82;76.48
80568;BME280;69922;45.656;25.586;2023-10-31T03:31:51;95121.95;;;4.83;76.35
80568;BME280;69922;45.656;25.586;2023-10-31T03:32:57;95121.66;;;4.84;76.49
80568;BME280;69922;45.656;25.586;2023-10-31T03:34:04;95117.92;;;4.86;76.16
80568;BME280;69922;45.656;25.586;2023-10-31T03:35:10;95120.35;;;4.86;76.25
80568;BME280;69922;45.656;25.586;2023-10-31T03:36:17;95122.98;;;4.86;76.26
80568;BME280;69922;45.656;25.586;2023-10-31T03:37:23;95118.39;;;4.87;76.25
80568;BME280;69922;45.656;25.586;2023-10-31T03:38:29;95120.23;;;4.87;76.28
80568;BME280;69922;45.656;25.586;2023-10-31T03:39:35;95121.21;;;4.86;76.13
80568;BME280;69922;45.656;25.586;2023-10-31T03:40:41;95122.95;;;4.86;76.20
80568;BME280;69922;45.656;25.586;2023-10-31T03:41:48;95118.84;;;4.85;76.10
80568;BME280;69922;45.656;25.586;2023-10-31T03:42:54;95115.98;;;4.85;76.39
80568;BME280;69922;45.656;25.586;2023-10-31T03:44:00;95114.73;;;4.85;76.54
80568;BME280;69922;45.656;25.586;2023-10-31T03:45:08;95111.00;;;4.85;76.21
80568;BME280;69922;45.656;25.586;2023-10-31T03:46:15;95109.92;;;4.85;76.24
80568;BME280;69922;45.656;25.586;2023-10-31T03:47:21;95113.82;;;4.84;76.27
80568;BME280;69922;45.656;25.586;2023-10-31T03:48:28;95108.10;;;4.83;76.23
80568;BME280;69922;45.656;25.586;2023-10-31T03:49:37;95106.38;;;4.82;76.34
80568;BME280;69922;45.656;25.586;2023-10-31T03:50:43;95107.05;;;4.80;76.33
80568;BME280;69922;45.656;25.586;2023-10-31T03:51:49;95095.42;;;4.78;76.49
80568;BME280;69922;45.656;25.586;2023-10-31T03:52:55;95097.93;;;4.79;76.40
80568;BME280;69922;45.656;25.586;2023-10-31T03:54:01;95098.90;;;4.78;76.54
80568;BME280;69922;45.656;25.586;2023-10-31T03:55:09;95094.31;;;4.78;76.51
80568;BME280;69922;45.656;25.586;2023-10-31T03:56:15;95097.67;;;4.77;76.46
80568;BME280;69922;45.656;25.586;2023-10-31T03:57:21;95095.80;;;4.77;76.44
80568;BME280;69922;45.656;25.586;2023-10-31T03:58:28;95098.28;;;4.76;76.36
80568;BME280;69922;45.656;25.586;2023-10-31T03:59:34;95101.80;;;4.74;76.32
80568;BME280;69922;45.656;25.586;2023-10-31T04:00:42;95099.72;;;4.73;76.75
80568;BME280;69922;45.656;25.586;2023-10-31T04:01:49;95096.00;;;4.72;76.35
80568;BME280;69922;45.656;25.586;2023-10-31T04:02:55;95096.61;;;4.71;76.63
80568;BME280;69922;45.656;25.586;2023-10-31T04:04:02;95098.75;;;4.69;76.41
80568;BME280;69922;45.656;25.586;2023-10-31T04:05:09;95094.39;;;4.67;76.83
80568;BME280;69922;45.656;25.586;2023-10-31T04:06:16;95093.64;;;4.66;76.94
80568;BME280;69922;45.656;25.586;2023-10-31T04:07:22;95091.34;;;4.65;76.71
80568;BME280;69922;45.656;25.586;2023-10-31T04:08:28;95090.73;;;4.64;76.57
80568;BME280;69922;45.656;25.586;2023-10-31T04:09:34;95088.70;;;4.62;76.71
80568;BME280;69922;45.656;25.586;2023-10-31T04:10:40;95088.77;;;4.60;76.57
80568;BME280;69922;45.656;25.586;2023-10-31T04:11:46;95085.78;;;4.58;76.81
80568;BME280;69922;45.656;25.586;2023-10-31T04:12:52;95088.27;;;4.57;76.77
80568;BME280;69922;45.656;25.586;2023-10-31T04:13:59;95087.91;;;4.56;76.46
80568;BME280;69922;45.656;25.586;2023-10-31T04:15:07;95090.01;;;4.57;76.17
80568;BME280;69922;45.656;25.586;2023-10-31T04:16:13;95085.46;;;4.57;76.35
80568;BME280;69922;45.656;25.586;2023-10-31T04:17:19;95082.44;;;4.57;76.36
80568;BME280;69922;45.656;25.586;2023-10-31T04:18:26;95085.48;;;4.56;76.36
80568;BME280;69922;45.656;25.586;2023-10-31T04:19:32;95086.90;;;4.55;76.23
80568;BME280;69922;45.656;25.586;2023-10-31T04:20:38;95083.50;;;4.54;76.19
80568;BME280;69922;45.656;25.586;2023-10-31T04:21:45;95088.16;;;4.53;76.12
80568;BME280;69922;45.656;25.586;2023-10-31T04:22:51;95080.81;;;4.52;76.08
80568;BME280;69922;45.656;25.586;2023-10-31T04:23:57;95078.06;;;4.51;75.87
80568;BME280;69922;45.656;25.586;2023-10-31T04:25:05;95078.98;;;4.50;75.73
80568;BME280;69922;45.656;25.586;2023-10-31T04:26:11;95077.71;;;4.49;75.98
80568;BME280;69922;45.656;25.586;2023-10-31T04:27:17;95078.48;;;4.49;75.88
80568;BME280;69922;45.656;25.586;2023-10-31T04:28:23;95076.26;;;4.50;75.72
80568;BME280;69922;45.656;25.586;2023-10-31T04:29:29;95076.17;;;4.51;75.48
80568;BME280;69922;45.656;25.586;2023-10-31T04:30:35;95074.70;;;4.52;75.59
80568;BME280;69922;45.656;25.586;2023-10-31T04:31:41;95076.27;;;4.53;75.33
80568;BME280;69922;45.656;25.586;2023-10-31T04:32:49;95073.29;;;4.55;75.13
80568;BME280;69922;45.656;25.586;2023-10-31T04:33:55;95071.65;;;4.56;75.34
80568;BME280;69922;45.656;25.586;2023-10-31T04:35:01;95068.64;;;4.57;75.10
80568;BME280;69922;45.656;25.586;2023-10-31T04:36:09;95069.38;;;4.59;75.08
80568;BME280;69922;45.656;25.586;2023-10-31T04:37:16;95067.19;;;4.61;75.02
80568;BME280;69922;45.656;25.586;2023-10-31T04:38:22;95065.45;;;4.63;75.04
80568;BME280;69922;45.656;25.586;2023-10-31T04:39:28;95065.64;;;4.65;75.18
80568;BME280;69922;45.656;25.586;2023-10-31T04:40:34;95072.33;;;4.67;75.14
80568;BME280;69922;45.656;25.586;2023-10-31T04:41:41;95067.64;;;4.69;75.47
80568;BME280;69922;45.656;25.586;2023-10-31T04:42:47;95064.30;;;4.72;75.64
80568;BME280;69922;45.656;25.586;2023-10-31T04:43:54;95055.34;;;4.75;75.52
80568;BME280;69922;45.656;25.586;2023-10-31T04:45:01;95063.85;;;4.78;75.09
80568;BME280;69922;45.656;25.586;2023-10-31T04:46:07;95062.58;;;4.80;74.85
80568;BME280;69922;45.656;25.586;2023-10-31T04:47:13;95061.48;;;4.81;75.07
80568;BME280;69922;45.656;25.586;2023-10-31T04:48:20;95061.86;;;4.82;74.95
80568;BME280;69922;45.656;25.586;2023-10-31T04:49:26;95061.89;;;4.83;75.22
80568;BME280;69922;45.656;25.586;2023-10-31T04:50:33;95062.31;;;4.85;74.92
80568;BME280;69922;45.656;25.586;2023-10-31T04:51:40;95064.25;;;4.86;74.70
80568;BME280;69922;45.656;25.586;2023-10-31T04:52:46;95065.97;;;4.87;74.67
80568;BME280;69922;45.656;25.586;2023-10-31T04:53:52;95062.77;;;4.87;74.69
80568;BME280;69922;45.656;25.586;2023-10-31T04:54:58;95061.84;;;4.87;74.61
80568;BME280;69922;45.656;25.586;2023-10-31T04:56:11;95063.89;;;4.88;74.81
80568;BME280;69922;45.656;25.586;2023-10-31T04:57:17;95063.98;;;4.88;74.67
80568;BME280;69922;45.656;25.586;2023-10-31T04:58:24;95067.23;;;4.88;74.62
80568;BME280;69922;45.656;25.586;2023-10-31T04:59:30;95064.48;;;4.89;74.55
80568;BME280;69922;45.656;25.586;2023-10-31T05:00:37;95064.37;;;4.88;74.62
80568;BME280;69922;45.656;25.586;2023-10-31T05:01:49;95068.42;;;4.89;74.71
80568;BME280;69922;45.656;25.586;2023-10-31T05:02:57;95062.52;;;4.88;74.45
80568;BME280;69922;45.656;25.586;2023-10-31T05:04:05;95063.25;;;4.88;74.33
80568;BME280;69922;45.656;25.586;2023-10-31T05:05:18;95065.75;;;4.87;73.98
80568;BME280;69922;45.656;25.586;2023-10-31T05:06:25;95066.28;;;4.87;73.98
80568;BME280;69922;45.656;25.586;2023-10-31T05:07:32;95066.27;;;4.88;73.64
80568;BME280;69922;45.656;25.586;2023-10-31T05:08:38;95064.27;;;4.88;73.73
80568;BME280;69922;45.656;25.586;2023-10-31T05:09:45;95066.72;;;4.90;73.45
80568;BME280;69922;45.656;25.586;2023-10-31T05:10:52;95062.88;;;4.94;73.16
80568;BME280;69922;45.656;25.586;2023-10-31T05:11:59;95064.08;;;4.98;73.01
80568;BME280;69922;45.656;25.586;2023-10-31T05:13:06;95062.75;;;5.03;72.77
80568;BME280;69922;45.656;25.586;2023-10-31T05:14:12;95065.58;;;5.07;72.61
80568;BME280;69922;45.656;25.586;2023-10-31T05:15:18;95066.34;;;5.11;72.57
80568;BME280;69922;45.656;25.586;2023-10-31T05:16:24;95065.70;;;5.14;72.29
80568;BME280;69922;45.656;25.586;2023-10-31T05:17:30;95067.77;;;5.17;72.13
80568;BME280;69922;45.656;25.586;2023-10-31T05:18:39;95065.33;;;5.20;71.90
80568;BME280;69922;45.656;25.586;2023-10-31T05:19:45;95072.21;;;5.23;71.81
80568;BME280;69922;45.656;25.586;2023-10-31T05:20:52;95068.56;;;5.25;71.69
80568;BME280;69922;45.656;25.586;2023-10-31T05:21:58;95068.82;;;5.28;71.30
80568;BME280;69922;45.656;25.586;2023-10-31T05:23:04;95069.14;;;5.31;71.18
80568;BME280;69922;45.656;25.586;2023-10-31T05:24:10;95070.02;;;5.34;70.97
80568;BME280;69922;45.656;25.586;2023-10-31T05:25:17;95069.95;;;5.38;70.75
80568;BME280;69922;45.656;25.586;2023-10-31T05:26:23;95070.38;;;5.42;70.43
80568;BME280;69922;45.656;25.586;2023-10-31T05:27:30;95080.02;;;5.46;70.13
80568;BME280;69922;45.656;25.586;2023-10-31T05:28:39;95077.88;;;5.50;70.02
80568;BME280;69922;45.656;25.586;2023-10-31T05:29:45;95081.63;;;5.54;70.00
80568;BME280;69922;45.656;25.586;2023-10-31T05:30:52;95085.98;;;5.59;69.79
80568;BME280;69922;45.656;25.586;2023-10-31T05:31:58;95084.18;;;5.63;69.58
80568;BME280;69922;45.656;25.586;2023-10-31T05:33:05;95085.56;;;5.69;69.38
80568;BME280;69922;45.656;25.586;2023-10-31T05:34:12;95085.05;;;5.75;69.40
80568;BME280;69922;45.656;25.586;2023-10-31T05:35:19;95085.23;;;5.80;69.34
80568;BME280;69922;45.656;25.586;2023-10-31T05:36:25;95079.84;;;5.84;69.22
80568;BME280;69922;45.656;25.586;2023-10-31T05:37:33;95081.86;;;5.88;69.09
80568;BME280;69922;45.656;25.586;2023-10-31T05:38:40;95083.27;;;5.92;69.05
80568;BME280;69922;45.656;25.586;2023-10-31T05:39:46;95082.02;;;5.96;68.99
80568;BME280;69922;45.656;25.586;2023-10-31T05:40:52;95079.27;;;5.98;68.94
80568;BME280;69922;45.656;25.586;2023-10-31T05:41:58;95085.23;;;6.00;68.93
80568;BME280;69922;45.656;25.586;2023-10-31T05:43:04;95078.65;;;6.03;68.85
80568;BME280;69922;45.656;25.586;2023-10-31T05:44:10;95075.58;;;6.04;68.87
80568;BME280;69922;45.656;25.586;2023-10-31T05:45:17;95080.39;;;6.06;68.88
80568;BME280;69922;45.656;25.586;2023-10-31T05:46:23;95082.59;;;6.07;68.81
80568;BME280;69922;45.656;25.586;2023-10-31T05:47:30;95084.30;;;6.08;68.90
80568;BME280;69922;45.656;25.586;2023-10-31T05:48:36;95085.19;;;6.10;68.67
80568;BME280;69922;45.656;25.586;2023-10-31T05:49:44;95087.46;;;6.14;68.44
80568;BME280;69922;45.656;25.586;2023-10-31T05:50:50;95086.55;;;6.16;68.49
80568;BME280;69922;45.656;25.586;2023-10-31T05:51:56;95087.49;;;6.21;68.44
80568;BME280;69922;45.656;25.586;2023-10-31T05:53:02;95088.70;;;6.24;68.47